sensor_id;sensor_type;location;lat;lon;timestamp;pressure;altitude;pressure_sealevel;temperature
25514;BMP180;48128;54.242;10.280;2022-09-09T00:01:46;100376.00;;;14.20
25514;BMP180;48128;54.242;10.280;2022-09-09T00:07:21;100375.00;;;14.20
25514;BMP180;48128;54.242;10.280;2022-09-09T00:10:03;100378.00;;;14.20
25514;BMP180;48128;54.242;10.280;2022-09-09T00:12:57;100378.00;;;14.20
25514;BMP180;48128;54.242;10.280;2022-09-09T00:18:29;100362.00;;;14.20
25514;BMP180;48128;54.242;10.280;2022-09-09T00:21:06;100353.00;;;14.20
25514;BMP180;48128;54.242;10.280;2022-09-09T00:23:35;100362.00;;;14.20
25514;BMP180;48128;54.242;10.280;2022-09-09T00:26:13;100364.00;;;14.20
25514;BMP180;48128;54.242;10.280;2022-09-09T00:31:33;100363.00;;;14.20
25514;BMP180;48128;54.242;10.280;2022-09-09T00:34:15;100373.00;;;14.30
25514;BMP180;48128;54.242;10.280;2022-09-09T00:36:43;100366.00;;;14.30
25514;BMP180;48128;54.242;10.280;2022-09-09T00:39:39;100374.00;;;14.30
25514;BMP180;48128;54.242;10.280;2022-09-09T00:42:13;100369.00;;;14.30
25514;BMP180;48128;54.242;10.280;2022-09-09T00:45:10;100373.00;;;14.30
25514;BMP180;48128;54.242;10.280;2022-09-09T00:47:47;100358.00;;;14.30
25514;BMP180;48128;54.242;10.280;2022-09-09T00:58:25;100357.00;;;14.30
25514;BMP180;48128;54.242;10.280;2022-09-09T01:11:30;100353.00;;;14.30
25514;BMP180;48128;54.242;10.280;2022-09-09T01:14:10;100352.00;;;14.30
25514;BMP180;48128;54.242;10.280;2022-09-09T01:16:38;100352.00;;;14.30
25514;BMP180;48128;54.242;10.280;2022-09-09T01:19:05;100354.00;;;14.30
25514;BMP180;48128;54.242;10.280;2022-09-09T01:21:42;100353.00;;;14.30
25514;BMP180;48128;54.242;10.280;2022-09-09T01:26:58;100349.00;;;14.30
25514;BMP180;48128;54.242;10.280;2022-09-09T01:29:26;100340.00;;;14.30
25514;BMP180;48128;54.242;10.280;2022-09-09T01:32:02;100338.00;;;14.30
25514;BMP180;48128;54.242;10.280;2022-09-09T01:34:36;100344.00;;;14.30
25514;BMP180;48128;54.242;10.280;2022-09-09T01:37:11;100335.00;;;14.30
25514;BMP180;48128;54.242;10.280;2022-09-09T01:39:39;100336.00;;;14.30
25514;BMP180;48128;54.242;10.280;2022-09-09T01:42:09;100335.00;;;14.30
25514;BMP180;48128;54.242;10.280;2022-09-09T01:44:37;100343.00;;;14.30
25514;BMP180;48128;54.242;10.280;2022-09-09T01:47:05;100342.00;;;14.30
25514;BMP180;48128;54.242;10.280;2022-09-09T01:49:32;100346.00;;;14.30
25514;BMP180;48128;54.242;10.280;2022-09-09T01:51:59;100351.00;;;14.40
25514;BMP180;48128;54.242;10.280;2022-09-09T01:54:28;100361.00;;;14.40
25514;BMP180;48128;54.242;10.280;2022-09-09T02:02:19;100360.00;;;14.40
25514;BMP180;48128;54.242;10.280;2022-09-09T02:05:01;100348.00;;;14.30
25514;BMP180;48128;54.242;10.280;2022-09-09T02:07:38;100356.00;;;14.40
25514;BMP180;48128;54.242;10.280;2022-09-09T02:10:27;100355.00;;;14.40
25514;BMP180;48128;54.242;10.280;2022-09-09T02:13:08;100354.00;;;14.30
25514;BMP180;48128;54.242;10.280;2022-09-09T02:18:07;100354.00;;;14.30
25514;BMP180;48128;54.242;10.280;2022-09-09T02:20:36;100353.00;;;14.40
25514;BMP180;48128;54.242;10.280;2022-09-09T02:23:04;100345.00;;;14.40
25514;BMP180;48128;54.242;10.280;2022-09-09T02:25:32;100349.00;;;14.40
25514;BMP180;48128;54.242;10.280;2022-09-09T02:28:00;100341.00;;;14.40
25514;BMP180;48128;54.242;10.280;2022-09-09T02:30:29;100352.00;;;14.40
25514;BMP180;48128;54.242;10.280;2022-09-09T02:32:58;100346.00;;;14.40
25514;BMP180;48128;54.242;10.280;2022-09-09T02:35:26;100358.00;;;14.30
25514;BMP180;48128;54.242;10.280;2022-09-09T02:37:55;100365.00;;;14.40
25514;BMP180;48128;54.242;10.280;2022-09-09T02:40:23;100356.00;;;14.30
25514;BMP180;48128;54.242;10.280;2022-09-09T02:42:50;100350.00;;;14.30
25514;BMP180;48128;54.242;10.280;2022-09-09T02:45:19;100359.00;;;14.30
25514;BMP180;48128;54.242;10.280;2022-09-09T02:50:29;100363.00;;;14.30
25514;BMP180;48128;54.242;10.280;2022-09-09T02:53:09;100361.00;;;14.30
25514;BMP180;48128;54.242;10.280;2022-09-09T02:58:19;100367.00;;;14.30
25514;BMP180;48128;54.242;10.280;2022-09-09T03:00:48;100357.00;;;14.30
25514;BMP180;48128;54.242;10.280;2022-09-09T03:03:16;100357.00;;;14.30
25514;BMP180;48128;54.242;10.280;2022-09-09T03:05:43;100355.00;;;14.30
25514;BMP180;48128;54.242;10.280;2022-09-09T03:08:11;100354.00;;;14.30
25514;BMP180;48128;54.242;10.280;2022-09-09T03:10:39;100358.00;;;14.30
25514;BMP180;48128;54.242;10.280;2022-09-09T03:13:06;100368.00;;;14.30
25514;BMP180;48128;54.242;10.280;2022-09-09T03:15:33;100368.00;;;14.30
25514;BMP180;48128;54.242;10.280;2022-09-09T03:18:00;100362.00;;;14.30
25514;BMP180;48128;54.242;10.280;2022-09-09T03:20:28;100357.00;;;14.30
25514;BMP180;48128;54.242;10.280;2022-09-09T03:22:56;100371.00;;;14.30
25514;BMP180;48128;54.242;10.280;2022-09-09T03:25:23;100369.00;;;14.30
25514;BMP180;48128;54.242;10.280;2022-09-09T03:27:50;100378.00;;;14.30
25514;BMP180;48128;54.242;10.280;2022-09-09T03:30:24;100375.00;;;14.30
25514;BMP180;48128;54.242;10.280;2022-09-09T03:32:51;100377.00;;;14.30
25514;BMP180;48128;54.242;10.280;2022-09-09T03:35:18;100379.00;;;14.30
25514;BMP180;48128;54.242;10.280;2022-09-09T03:37:45;100371.00;;;14.30
25514;BMP180;48128;54.242;10.280;2022-09-09T03:40:22;100376.00;;;14.30
25514;BMP180;48128;54.242;10.280;2022-09-09T03:42:51;100379.00;;;14.30
25514;BMP180;48128;54.242;10.280;2022-09-09T03:45:18;100383.00;;;14.30
25514;BMP180;48128;54.242;10.280;2022-09-09T03:47:45;100381.00;;;14.30
25514;BMP180;48128;54.242;10.280;2022-09-09T03:50:12;100376.00;;;14.30
25514;BMP180;48128;54.242;10.280;2022-09-09T03:52:40;100374.00;;;14.30
25514;BMP180;48128;54.242;10.280;2022-09-09T03:55:07;100373.00;;;14.30
25514;BMP180;48128;54.242;10.280;2022-09-09T03:57:35;100373.00;;;14.30
25514;BMP180;48128;54.242;10.280;2022-09-09T04:00:04;100374.00;;;14.30
25514;BMP180;48128;54.242;10.280;2022-09-09T04:02:31;100377.00;;;14.30
25514;BMP180;48128;54.242;10.280;2022-09-09T04:04:58;100376.00;;;14.20
25514;BMP180;48128;54.242;10.280;2022-09-09T04:07:26;100373.00;;;14.20
25514;BMP180;48128;54.242;10.280;2022-09-09T04:09:54;100374.00;;;14.20
25514;BMP180;48128;54.242;10.280;2022-09-09T04:12:21;100371.00;;;14.20
25514;BMP180;48128;54.242;10.280;2022-09-09T04:14:49;100359.00;;;14.20
25514;BMP180;48128;54.242;10.280;2022-09-09T04:17:15;100367.00;;;14.20
25514;BMP180;48128;54.242;10.280;2022-09-09T04:19:43;100379.00;;;14.20
25514;BMP180;48128;54.242;10.280;2022-09-09T04:22:10;100380.00;;;14.20
25514;BMP180;48128;54.242;10.280;2022-09-09T04:24:37;100381.00;;;14.20
25514;BMP180;48128;54.242;10.280;2022-09-09T04:27:04;100383.00;;;14.20
25514;BMP180;48128;54.242;10.280;2022-09-09T04:29:31;100379.00;;;14.20
25514;BMP180;48128;54.242;10.280;2022-09-09T04:31:58;100381.00;;;14.20
25514;BMP180;48128;54.242;10.280;2022-09-09T04:34:25;100389.00;;;14.20
25514;BMP180;48128;54.242;10.280;2022-09-09T04:36:52;100386.00;;;14.20
25514;BMP180;48128;54.242;10.280;2022-09-09T04:39:19;100397.00;;;14.20
25514;BMP180;48128;54.242;10.280;2022-09-09T04:41:46;100392.00;;;14.20
25514;BMP180;48128;54.242;10.280;2022-09-09T04:44:13;100383.00;;;14.20
25514;BMP180;48128;54.242;10.280;2022-09-09T04:46:40;100390.00;;;14.20
25514;BMP180;48128;54.242;10.280;2022-09-09T04:49:08;100385.00;;;14.20
25514;BMP180;48128;54.242;10.280;2022-09-09T04:51:40;100392.00;;;14.20
25514;BMP180;48128;54.242;10.280;2022-09-09T04:54:07;100394.00;;;14.20
25514;BMP180;48128;54.242;10.280;2022-09-09T04:56:34;100387.00;;;14.20
25514;BMP180;48128;54.242;10.280;2022-09-09T04:59:01;100395.00;;;14.20
25514;BMP180;48128;54.242;10.280;2022-09-09T05:01:29;100393.00;;;14.20
25514;BMP180;48128;54.242;10.280;2022-09-09T05:03:56;100392.00;;;14.20
25514;BMP180;48128;54.242;10.280;2022-09-09T05:06:23;100399.00;;;14.20
25514;BMP180;48128;54.242;10.280;2022-09-09T05:08:50;100407.00;;;14.20
25514;BMP180;48128;54.242;10.280;2022-09-09T05:11:27;100408.00;;;14.20
25514;BMP180;48128;54.242;10.280;2022-09-09T05:13:55;100417.00;;;14.20
25514;BMP180;48128;54.242;10.280;2022-09-09T05:16:23;100413.00;;;14.20
25514;BMP180;48128;54.242;10.280;2022-09-09T05:18:50;100427.00;;;14.20
25514;BMP180;48128;54.242;10.280;2022-09-09T05:21:19;100424.00;;;14.30
25514;BMP180;48128;54.242;10.280;2022-09-09T05:23:46;100428.00;;;14.30
25514;BMP180;48128;54.242;10.280;2022-09-09T05:26:15;100424.00;;;14.30
25514;BMP180;48128;54.242;10.280;2022-09-09T05:28:44;100428.00;;;14.30
25514;BMP180;48128;54.242;10.280;2022-09-09T05:31:13;100432.00;;;14.30
25514;BMP180;48128;54.242;10.280;2022-09-09T05:33:42;100427.00;;;14.30
25514;BMP180;48128;54.242;10.280;2022-09-09T05:36:13;100431.00;;;14.30
25514;BMP180;48128;54.242;10.280;2022-09-09T05:38:40;100432.00;;;14.30
25514;BMP180;48128;54.242;10.280;2022-09-09T05:41:08;100436.00;;;14.30
25514;BMP180;48128;54.242;10.280;2022-09-09T05:43:36;100436.00;;;14.30
25514;BMP180;48128;54.242;10.280;2022-09-09T05:46:10;100429.00;;;14.30
25514;BMP180;48128;54.242;10.280;2022-09-09T05:48:47;100437.00;;;14.40
25514;BMP180;48128;54.242;10.280;2022-09-09T05:51:16;100440.00;;;14.40
25514;BMP180;48128;54.242;10.280;2022-09-09T05:53:44;100433.00;;;14.40
25514;BMP180;48128;54.242;10.280;2022-09-09T05:56:17;100436.00;;;14.40
25514;BMP180;48128;54.242;10.280;2022-09-09T05:58:45;100433.00;;;14.40
25514;BMP180;48128;54.242;10.280;2022-09-09T06:01:24;100433.00;;;14.40
25514;BMP180;48128;54.242;10.280;2022-09-09T06:03:51;100436.00;;;14.40
25514;BMP180;48128;54.242;10.280;2022-09-09T06:06:21;100439.00;;;14.40
25514;BMP180;48128;54.242;10.280;2022-09-09T06:08:56;100441.00;;;14.40
25514;BMP180;48128;54.242;10.280;2022-09-09T06:11:28;100439.00;;;14.50
25514;BMP180;48128;54.242;10.280;2022-09-09T06:13:58;100443.00;;;14.50
25514;BMP180;48128;54.242;10.280;2022-09-09T06:16:27;100455.00;;;14.50
25514;BMP180;48128;54.242;10.280;2022-09-09T06:18:55;100453.00;;;14.50
25514;BMP180;48128;54.242;10.280;2022-09-09T06:21:28;100455.00;;;14.60
25514;BMP180;48128;54.242;10.280;2022-09-09T06:23:55;100448.00;;;14.60
25514;BMP180;48128;54.242;10.280;2022-09-09T06:26:29;100456.00;;;14.70
25514;BMP180;48128;54.242;10.280;2022-09-09T06:28:57;100452.00;;;14.70
25514;BMP180;48128;54.242;10.280;2022-09-09T06:31:31;100460.00;;;14.70
25514;BMP180;48128;54.242;10.280;2022-09-09T06:34:01;100460.00;;;14.80
25514;BMP180;48128;54.242;10.280;2022-09-09T06:36:31;100464.00;;;14.80
25514;BMP180;48128;54.242;10.280;2022-09-09T06:38:58;100472.00;;;14.80
25514;BMP180;48128;54.242;10.280;2022-09-09T06:41:30;100470.00;;;14.90
25514;BMP180;48128;54.242;10.280;2022-09-09T06:43:57;100473.00;;;14.90
25514;BMP180;48128;54.242;10.280;2022-09-09T06:46:29;100465.00;;;14.90
25514;BMP180;48128;54.242;10.280;2022-09-09T06:48:58;100488.00;;;14.90
25514;BMP180;48128;54.242;10.280;2022-09-09T06:51:31;100486.00;;;15.00
25514;BMP180;48128;54.242;10.280;2022-09-09T06:53:59;100483.00;;;14.90
25514;BMP180;48128;54.242;10.280;2022-09-09T06:56:32;100487.00;;;15.00
25514;BMP180;48128;54.242;10.280;2022-09-09T06:59:01;100489.00;;;15.00
25514;BMP180;48128;54.242;10.280;2022-09-09T07:01:37;100486.00;;;15.00
25514;BMP180;48128;54.242;10.280;2022-09-09T07:04:05;100494.00;;;15.10
25514;BMP180;48128;54.242;10.280;2022-09-09T07:06:37;100476.00;;;15.10
25514;BMP180;48128;54.242;10.280;2022-09-09T07:09:06;100478.00;;;15.10
25514;BMP180;48128;54.242;10.280;2022-09-09T07:11:37;100478.00;;;15.10
25514;BMP180;48128;54.242;10.280;2022-09-09T07:14:04;100477.00;;;15.20
25514;BMP180;48128;54.242;10.280;2022-09-09T07:16:31;100474.00;;;15.20
25514;BMP180;48128;54.242;10.280;2022-09-09T07:19:00;100484.00;;;15.30
25514;BMP180;48128;54.242;10.280;2022-09-09T07:21:28;100472.00;;;15.30
25514;BMP180;48128;54.242;10.280;2022-09-09T07:23:56;100476.00;;;15.40
25514;BMP180;48128;54.242;10.280;2022-09-09T07:26:25;100478.00;;;15.40
25514;BMP180;48128;54.242;10.280;2022-09-09T07:28:52;100483.00;;;15.50
25514;BMP180;48128;54.242;10.280;2022-09-09T07:31:25;100472.00;;;15.50
25514;BMP180;48128;54.242;10.280;2022-09-09T07:33:53;100481.00;;;15.60
25514;BMP180;48128;54.242;10.280;2022-09-09T07:36:22;100481.00;;;15.60
25514;BMP180;48128;54.242;10.280;2022-09-09T07:38:55;100487.00;;;15.60
25514;BMP180;48128;54.242;10.280;2022-09-09T07:41:28;100491.00;;;15.60
25514;BMP180;48128;54.242;10.280;2022-09-09T07:43:56;100492.00;;;15.60
25514;BMP180;48128;54.242;10.280;2022-09-09T07:46:25;100487.00;;;15.60
25514;BMP180;48128;54.242;10.280;2022-09-09T07:48:54;100489.00;;;15.70
25514;BMP180;48128;54.242;10.280;2022-09-09T07:51:30;100488.00;;;15.80
25514;BMP180;48128;54.242;10.280;2022-09-09T07:53:59;100503.00;;;15.80
25514;BMP180;48128;54.242;10.280;2022-09-09T07:56:27;100501.00;;;15.80
25514;BMP180;48128;54.242;10.280;2022-09-09T07:58:55;100503.00;;;15.90
25514;BMP180;48128;54.242;10.280;2022-09-09T08:01:27;100486.00;;;15.90
25514;BMP180;48128;54.242;10.280;2022-09-09T08:06:30;100501.00;;;16.10
25514;BMP180;48128;54.242;10.280;2022-09-09T08:08:57;100497.00;;;16.20
25514;BMP180;48128;54.242;10.280;2022-09-09T08:11:25;100492.00;;;16.30
25514;BMP180;48128;54.242;10.280;2022-09-09T08:13:53;100489.00;;;16.40
25514;BMP180;48128;54.242;10.280;2022-09-09T08:16:27;100497.00;;;16.50
25514;BMP180;48128;54.242;10.280;2022-09-09T08:18:54;100497.00;;;16.60
25514;BMP180;48128;54.242;10.280;2022-09-09T08:21:24;100496.00;;;16.70
25514;BMP180;48128;54.242;10.280;2022-09-09T08:23:52;100512.00;;;16.70
25514;BMP180;48128;54.242;10.280;2022-09-09T08:26:25;100521.00;;;16.80
25514;BMP180;48128;54.242;10.280;2022-09-09T08:28:54;100508.00;;;17.00
25514;BMP180;48128;54.242;10.280;2022-09-09T08:31:24;100509.00;;;17.10
25514;BMP180;48128;54.242;10.280;2022-09-09T08:33:51;100519.00;;;17.20
25514;BMP180;48128;54.242;10.280;2022-09-09T08:36:21;100529.00;;;17.30
25514;BMP180;48128;54.242;10.280;2022-09-09T08:38:49;100525.00;;;17.40
25514;BMP180;48128;54.242;10.280;2022-09-09T08:52:16;100548.00;;;17.70
25514;BMP180;48128;54.242;10.280;2022-09-09T08:54:45;100539.00;;;17.70
25514;BMP180;48128;54.242;10.280;2022-09-09T08:57:23;100526.00;;;17.70
25514;BMP180;48128;54.242;10.280;2022-09-09T08:59:55;100529.00;;;17.70
25514;BMP180;48128;54.242;10.280;2022-09-09T09:05:33;100531.00;;;17.70
25514;BMP180;48128;54.242;10.280;2022-09-09T09:13:15;100546.00;;;18.00
25514;BMP180;48128;54.242;10.280;2022-09-09T09:15:44;100568.00;;;18.10
25514;BMP180;48128;54.242;10.280;2022-09-09T09:18:12;100567.00;;;18.10
25514;BMP180;48128;54.242;10.280;2022-09-09T09:20:46;100567.00;;;18.20
25514;BMP180;48128;54.242;10.280;2022-09-09T09:23:23;100565.00;;;18.20
25514;BMP180;48128;54.242;10.280;2022-09-09T09:25:54;100589.00;;;18.20
25514;BMP180;48128;54.242;10.280;2022-09-09T09:28:26;100573.00;;;18.10
25514;BMP180;48128;54.242;10.280;2022-09-09T09:31:03;100576.00;;;18.00
25514;BMP180;48128;54.242;10.280;2022-09-09T09:36:08;100552.00;;;18.10
25514;BMP180;48128;54.242;10.280;2022-09-09T09:38:36;100553.00;;;18.20
25514;BMP180;48128;54.242;10.280;2022-09-09T09:43:57;100570.00;;;18.60
25514;BMP180;48128;54.242;10.280;2022-09-09T09:46:25;100579.00;;;18.70
25514;BMP180;48128;54.242;10.280;2022-09-09T09:49:05;100565.00;;;19.00
25514;BMP180;48128;54.242;10.280;2022-09-09T09:51:32;100562.00;;;19.00
25514;BMP180;48128;54.242;10.280;2022-09-09T09:54:23;100561.00;;;19.30
25514;BMP180;48128;54.242;10.280;2022-09-09T09:56:52;100565.00;;;19.40
25514;BMP180;48128;54.242;10.280;2022-09-09T09:59:35;100574.00;;;19.60
25514;BMP180;48128;54.242;10.280;2022-09-09T10:02:18;100592.00;;;19.80
25514;BMP180;48128;54.242;10.280;2022-09-09T10:04:46;100575.00;;;19.80
25514;BMP180;48128;54.242;10.280;2022-09-09T10:07:21;100576.00;;;19.80
25514;BMP180;48128;54.242;10.280;2022-09-09T10:09:53;100583.00;;;19.80
25514;BMP180;48128;54.242;10.280;2022-09-09T10:20:45;100633.00;;;20.30
25514;BMP180;48128;54.242;10.280;2022-09-09T10:26:40;100623.00;;;20.50
25514;BMP180;48128;54.242;10.280;2022-09-09T10:35:34;100591.00;;;20.30
25514;BMP180;48128;54.242;10.280;2022-09-09T10:38:13;100599.00;;;20.50
25514;BMP180;48128;54.242;10.280;2022-09-09T10:43:40;100590.00;;;20.70
25514;BMP180;48128;54.242;10.280;2022-09-09T10:46:31;100601.00;;;20.60
25514;BMP180;48128;54.242;10.280;2022-09-09T10:55:01;100560.00;;;20.20
25514;BMP180;48128;54.242;10.280;2022-09-09T10:57:48;100558.00;;;20.20
25514;BMP180;48128;54.242;10.280;2022-09-09T11:00:31;100581.00;;;20.30
25514;BMP180;48128;54.242;10.280;2022-09-09T11:03:03;100562.00;;;20.20
25514;BMP180;48128;54.242;10.280;2022-09-09T11:05:39;100556.00;;;20.20
25514;BMP180;48128;54.242;10.280;2022-09-09T11:08:14;100558.00;;;20.20
25514;BMP180;48128;54.242;10.280;2022-09-09T11:10:45;100564.00;;;20.30
25514;BMP180;48128;54.242;10.280;2022-09-09T11:19:43;100583.00;;;21.00
25514;BMP180;48128;54.242;10.280;2022-09-09T11:21:49;100613.00;;;21.10
25514;BMP180;48128;54.242;10.280;2022-09-09T11:32:53;100619.00;;;21.80
25514;BMP180;48128;54.242;10.280;2022-09-09T11:35:26;100631.00;;;22.00
25514;BMP180;48128;54.242;10.280;2022-09-09T11:40:31;100625.00;;;21.60
25514;BMP180;48128;54.242;10.280;2022-09-09T11:43:12;100627.00;;;21.70
25514;BMP180;48128;54.242;10.280;2022-09-09T11:45:41;100636.00;;;21.90
25514;BMP180;48128;54.242;10.280;2022-09-09T11:48:40;100659.00;;;21.90
25514;BMP180;48128;54.242;10.280;2022-09-09T11:53:58;100622.00;;;21.90
25514;BMP180;48128;54.242;10.280;2022-09-09T11:56:41;100630.00;;;21.80
25514;BMP180;48128;54.242;10.280;2022-09-09T11:59:21;100633.00;;;21.80
25514;BMP180;48128;54.242;10.280;2022-09-09T12:02:16;100644.00;;;21.80
25514;BMP180;48128;54.242;10.280;2022-09-09T12:04:54;100606.00;;;21.60
25514;BMP180;48128;54.242;10.280;2022-09-09T12:08:08;100630.00;;;21.30
25514;BMP180;48128;54.242;10.280;2022-09-09T12:10:33;100611.00;;;21.20
25514;BMP180;48128;54.242;10.280;2022-09-09T12:15:50;100621.00;;;21.30
25514;BMP180;48128;54.242;10.280;2022-09-09T12:18:22;100603.00;;;21.00
25514;BMP180;48128;54.242;10.280;2022-09-09T12:24:03;100639.00;;;20.80
25514;BMP180;48128;54.242;10.280;2022-09-09T12:32:07;100669.00;;;21.20
25514;BMP180;48128;54.242;10.280;2022-09-09T12:34:51;100656.00;;;21.60
25514;BMP180;48128;54.242;10.280;2022-09-09T12:40:34;100720.00;;;22.30
25514;BMP180;48128;54.242;10.280;2022-09-09T12:43:26;100725.00;;;22.30
25514;BMP180;48128;54.242;10.280;2022-09-09T12:49:03;100711.00;;;22.30
25514;BMP180;48128;54.242;10.280;2022-09-09T12:51:31;100661.00;;;22.30
25514;BMP180;48128;54.242;10.280;2022-09-09T12:53:59;100673.00;;;22.40
25514;BMP180;48128;54.242;10.280;2022-09-09T12:56:32;100698.00;;;22.40
25514;BMP180;48128;54.242;10.280;2022-09-09T12:58:59;100678.00;;;22.50
25514;BMP180;48128;54.242;10.280;2022-09-09T13:01:32;100663.00;;;22.60
25514;BMP180;48128;54.242;10.280;2022-09-09T13:04:02;100675.00;;;22.60
25514;BMP180;48128;54.242;10.280;2022-09-09T13:06:30;100655.00;;;22.60
25514;BMP180;48128;54.242;10.280;2022-09-09T13:08:59;100655.00;;;22.70
25514;BMP180;48128;54.242;10.280;2022-09-09T13:11:39;100664.00;;;22.60
25514;BMP180;48128;54.242;10.280;2022-09-09T13:14:32;100654.00;;;22.20
25514;BMP180;48128;54.242;10.280;2022-09-09T13:17:03;100620.00;;;21.90
25514;BMP180;48128;54.242;10.280;2022-09-09T13:19:32;100611.00;;;21.60
25514;BMP180;48128;54.242;10.280;2022-09-09T13:22:00;100612.00;;;21.40
25514;BMP180;48128;54.242;10.280;2022-09-09T13:24:41;100598.00;;;21.30
25514;BMP180;48128;54.242;10.280;2022-09-09T13:27:40;100595.00;;;21.30
25514;BMP180;48128;54.242;10.280;2022-09-09T13:30:27;100608.00;;;21.30
25514;BMP180;48128;54.242;10.280;2022-09-09T13:35:49;100619.00;;;21.40
25514;BMP180;48128;54.242;10.280;2022-09-09T13:38:16;100567.00;;;21.20
25514;BMP180;48128;54.242;10.280;2022-09-09T13:41:42;100592.00;;;20.90
25514;BMP180;48128;54.242;10.280;2022-09-09T13:44:39;100578.00;;;20.60
25514;BMP180;48128;54.242;10.280;2022-09-09T13:47:18;100563.00;;;20.40
25514;BMP180;48128;54.242;10.280;2022-09-09T13:49:46;100568.00;;;20.30
25514;BMP180;48128;54.242;10.280;2022-09-09T13:52:15;100569.00;;;20.20
25514;BMP180;48128;54.242;10.280;2022-09-09T13:54:47;100568.00;;;20.10
25514;BMP180;48128;54.242;10.280;2022-09-09T13:57:16;100560.00;;;20.00
25514;BMP180;48128;54.242;10.280;2022-09-09T13:59:45;100557.00;;;19.70
25514;BMP180;48128;54.242;10.280;2022-09-09T14:02:31;100568.00;;;19.30
25514;BMP180;48128;54.242;10.280;2022-09-09T14:04:59;100590.00;;;19.00
25514;BMP180;48128;54.242;10.280;2022-09-09T14:07:29;100552.00;;;18.40
25514;BMP180;48128;54.242;10.280;2022-09-09T14:09:56;100532.00;;;18.10
25514;BMP180;48128;54.242;10.280;2022-09-09T14:12:23;100522.00;;;18.00
25514;BMP180;48128;54.242;10.280;2022-09-09T14:14:50;100514.00;;;17.90
25514;BMP180;48128;54.242;10.280;2022-09-09T14:17:17;100504.00;;;17.90
25514;BMP180;48128;54.242;10.280;2022-09-09T14:19:44;100514.00;;;17.90
25514;BMP180;48128;54.242;10.280;2022-09-09T14:22:11;100527.00;;;17.80
25514;BMP180;48128;54.242;10.280;2022-09-09T14:24:38;100514.00;;;17.70
25514;BMP180;48128;54.242;10.280;2022-09-09T14:27:05;100517.00;;;17.70
25514;BMP180;48128;54.242;10.280;2022-09-09T14:29:32;100515.00;;;17.70
25514;BMP180;48128;54.242;10.280;2022-09-09T14:31:59;100499.00;;;17.80
25514;BMP180;48128;54.242;10.280;2022-09-09T14:34:27;100508.00;;;17.90
25514;BMP180;48128;54.242;10.280;2022-09-09T14:36:54;100508.00;;;18.00
25514;BMP180;48128;54.242;10.280;2022-09-09T14:39:21;100503.00;;;18.10
25514;BMP180;48128;54.242;10.280;2022-09-09T14:41:48;100505.00;;;18.10
25514;BMP180;48128;54.242;10.280;2022-09-09T14:44:15;100513.00;;;18.10
25514;BMP180;48128;54.242;10.280;2022-09-09T14:46:42;100529.00;;;18.10
25514;BMP180;48128;54.242;10.280;2022-09-09T14:49:09;100526.00;;;18.20
25514;BMP180;48128;54.242;10.280;2022-09-09T14:51:40;100534.00;;;18.20
25514;BMP180;48128;54.242;10.280;2022-09-09T14:54:07;100532.00;;;18.10
25514;BMP180;48128;54.242;10.280;2022-09-09T14:56:34;100527.00;;;17.90
25514;BMP180;48128;54.242;10.280;2022-09-09T14:59:01;100517.00;;;17.90
25514;BMP180;48128;54.242;10.280;2022-09-09T15:01:30;100525.00;;;17.70
25514;BMP180;48128;54.242;10.280;2022-09-09T15:03:59;100517.00;;;17.60
25514;BMP180;48128;54.242;10.280;2022-09-09T15:06:28;100513.00;;;17.50
25514;BMP180;48128;54.242;10.280;2022-09-09T15:08:55;100507.00;;;17.40
25514;BMP180;48128;54.242;10.280;2022-09-09T15:11:27;100510.00;;;17.40
25514;BMP180;48128;54.242;10.280;2022-09-09T15:13:54;100507.00;;;17.40
25514;BMP180;48128;54.242;10.280;2022-09-09T15:16:23;100507.00;;;17.30
25514;BMP180;48128;54.242;10.280;2022-09-09T15:18:52;100522.00;;;17.30
25514;BMP180;48128;54.242;10.280;2022-09-09T15:21:22;100521.00;;;17.20
25514;BMP180;48128;54.242;10.280;2022-09-09T15:23:49;100542.00;;;17.30
25514;BMP180;48128;54.242;10.280;2022-09-09T15:26:16;100540.00;;;17.30
25514;BMP180;48128;54.242;10.280;2022-09-09T15:28:44;100553.00;;;17.30
25514;BMP180;48128;54.242;10.280;2022-09-09T15:31:14;100563.00;;;17.30
25514;BMP180;48128;54.242;10.280;2022-09-09T15:33:54;100576.00;;;17.40
25514;BMP180;48128;54.242;10.280;2022-09-09T15:36:32;100582.00;;;17.40
25514;BMP180;48128;54.242;10.280;2022-09-09T15:39:00;100577.00;;;17.40
25514;BMP180;48128;54.242;10.280;2022-09-09T15:41:28;100575.00;;;17.30
25514;BMP180;48128;54.242;10.280;2022-09-09T15:43:56;100562.00;;;17.30
25514;BMP180;48128;54.242;10.280;2022-09-09T15:48:58;100568.00;;;17.30
25514;BMP180;48128;54.242;10.280;2022-09-09T15:51:29;100565.00;;;17.30
25514;BMP180;48128;54.242;10.280;2022-09-09T15:54:10;100562.00;;;17.30
25514;BMP180;48128;54.242;10.280;2022-09-09T15:56:39;100567.00;;;17.30
25514;BMP180;48128;54.242;10.280;2022-09-09T15:59:06;100570.00;;;17.20
25514;BMP180;48128;54.242;10.280;2022-09-09T16:01:33;100578.00;;;17.20
25514;BMP180;48128;54.242;10.280;2022-09-09T16:04:00;100570.00;;;17.20
25514;BMP180;48128;54.242;10.280;2022-09-09T16:06:28;100576.00;;;17.20
25514;BMP180;48128;54.242;10.280;2022-09-09T16:08:57;100572.00;;;17.10
25514;BMP180;48128;54.242;10.280;2022-09-09T16:11:27;100579.00;;;17.10
25514;BMP180;48128;54.242;10.280;2022-09-09T16:13:54;100587.00;;;17.10
25514;BMP180;48128;54.242;10.280;2022-09-09T16:16:23;100579.00;;;17.10
25514;BMP180;48128;54.242;10.280;2022-09-09T16:18:53;100573.00;;;17.10
25514;BMP180;48128;54.242;10.280;2022-09-09T16:21:24;100576.00;;;17.00
25514;BMP180;48128;54.242;10.280;2022-09-09T16:24:00;100568.00;;;17.00
25514;BMP180;48128;54.242;10.280;2022-09-09T16:26:46;100574.00;;;17.00
25514;BMP180;48128;54.242;10.280;2022-09-09T16:29:17;100576.00;;;17.00